createdAt,value
2019-05-22T10:37:46.415Z,13.96
2019-05-22T10:42:47.269Z,13.85
2019-05-22T10:47:48.814Z,13.99
2019-05-22T10:52:54.086Z,13.79
2019-05-22T10:57:53.608Z,13.85
2019-05-22T11:02:55.288Z,13.82
2019-05-22T11:07:56.372Z,13.65
2019-05-22T11:12:57.753Z,13.49
2019-05-22T11:17:58.952Z,13.58
2019-05-22T11:23:00.524Z,13.46
2019-05-22T11:28:01.536Z,13.61
2019-05-22T11:33:02.993Z,13.69
2019-05-22T11:38:04.172Z,13.62
2019-05-22T11:43:06.154Z,13.86
2019-05-22T11:48:07.651Z,13.94
2019-05-22T11:53:08.646Z,13.78
2019-05-22T11:58:09.926Z,13.81
2019-05-22T12:03:12.198Z,13.85
2019-05-22T12:08:16.695Z,13.89
2019-05-22T12:13:17.769Z,14.04
2019-05-22T12:18:19.468Z,13.72
2019-05-22T12:23:20.440Z,13.70
2019-05-22T12:28:21.424Z,13.64
2019-05-22T12:33:22.779Z,13.61
2019-05-22T12:38:26.758Z,13.62
2019-05-22T12:43:27.963Z,13.61
2019-05-22T12:48:29.240Z,13.54
2019-05-22T12:53:30.724Z,13.54
2019-05-22T12:58:33.020Z,13.35
2019-05-22T13:03:34.911Z,13.37
2019-05-22T13:08:36.569Z,13.33
2019-05-22T13:13:41.579Z,13.64
2019-05-22T13:18:43.857Z,13.65
2019-05-22T13:23:44.949Z,13.77
2019-05-22T13:28:46.722Z,13.77
2019-05-22T13:33:48.494Z,13.85
2019-05-22T13:38:49.516Z,13.75
2019-05-22T13:43:50.597Z,14.38
2019-05-22T13:48:54.233Z,14.35
2019-05-22T13:53:55.504Z,14.42
2019-05-22T13:58:56.602Z,14.35
2019-05-22T14:03:57.478Z,14.53
2019-05-22T14:08:59.716Z,14.71
2019-05-22T14:14:01.121Z,14.34
2019-05-22T14:19:02.787Z,14.43
2019-05-22T14:24:04.090Z,14.30
2019-05-22T14:29:05.344Z,14.22
2019-05-22T14:34:06.521Z,14.25
2019-05-22T14:39:09.702Z,14.51
2019-05-22T14:44:11.375Z,14.46
2019-05-22T14:49:27.026Z,14.49
2019-05-22T14:54:28.903Z,14.73
2019-05-22T14:59:31.190Z,14.97
2019-05-22T15:04:32.372Z,14.99
2019-05-22T15:09:34.527Z,14.88
2019-05-22T15:14:35.504Z,14.64
2019-05-22T15:19:36.782Z,14.60
2019-05-22T15:24:37.960Z,14.62
2019-05-22T15:29:39.258Z,14.79
2019-05-22T15:34:40.628Z,14.73
2019-05-22T15:39:42.800Z,14.71
2019-05-22T15:44:44.283Z,14.68
2019-05-22T15:49:45.552Z,14.65
2019-05-22T15:54:46.723Z,14.81
2019-05-22T15:59:47.625Z,15.27
2019-05-22T16:04:49.418Z,15.40
2019-05-22T16:09:50.595Z,15.29
2019-05-22T16:14:51.561Z,15.20
2019-05-22T16:19:52.941Z,15.02
2019-05-22T16:24:53.927Z,14.95
2019-05-22T16:29:54.815Z,15.00
2019-05-22T16:34:56.915Z,14.82
2019-05-22T16:39:58.464Z,14.77
2019-05-22T16:45:00.235Z,14.72
2019-05-22T16:50:01.431Z,14.74
2019-05-22T16:55:06.396Z,14.70
2019-05-22T17:00:09.791Z,14.67
2019-05-22T17:05:12.187Z,14.74
2019-05-22T17:10:14.369Z,14.47
2019-05-22T17:15:18.820Z,14.47
2019-05-22T17:20:22.905Z,14.28
2019-05-22T17:25:24.202Z,14.16
2019-05-22T17:30:25.885Z,14.15
2019-05-22T17:35:27.572Z,13.99
2019-05-22T17:40:30.036Z,13.96
2019-05-22T17:45:31.128Z,13.97
2019-05-22T17:50:32.990Z,13.99
2019-05-22T17:55:34.664Z,13.90
2019-05-22T18:00:40.223Z,13.83
2019-05-22T18:05:41.884Z,13.80
2019-05-22T18:10:47.790Z,13.75
2019-05-22T18:15:48.751Z,13.75
2019-05-22T18:20:50.620Z,13.78
2019-05-22T18:25:52.013Z,13.73
2019-05-22T18:30:53.506Z,13.68
2019-05-22T18:35:54.381Z,13.61
2019-05-22T18:40:55.259Z,13.57
2019-05-22T18:45:56.343Z,13.57
2019-05-22T18:50:57.232Z,13.40
2019-05-22T18:55:58.135Z,13.33
2019-05-22T19:00:59.099Z,13.35
2019-05-22T19:06:01.508Z,13.12
2019-05-22T19:11:02.796Z,13.13
2019-05-22T19:16:04.894Z,13.12
2019-05-22T19:21:07.090Z,13.08
2019-05-22T19:26:07.947Z,13.07
2019-05-22T19:31:09.431Z,13.13
2019-05-22T19:36:10.515Z,13.06
2019-05-22T19:41:11.792Z,12.98
2019-05-22T19:46:13.473Z,12.94
2019-05-22T19:51:16.751Z,12.92
2019-05-22T19:56:18.246Z,13.00
2019-05-22T20:01:19.330Z,12.96
2019-05-22T20:06:21.618Z,13.02
2019-05-22T20:11:22.696Z,13.03
2019-05-22T20:16:24.071Z,12.95
2019-05-22T20:21:26.360Z,12.98
2019-05-22T20:26:27.538Z,13.04
